sensor_id;sensor_type;location;lat;lon;timestamp;pressure;altitude;pressure_sealevel;temperature;humidity
67457;BME280;54319;52.038;4.640;2023-02-11T00:01:20;103573.81;;;6.04;85.11
67457;BME280;54319;52.038;4.640;2023-02-11T00:03:48;103606.56;;;6.26;85.11
67457;BME280;54319;52.038;4.640;2023-02-11T00:06:16;103576.19;;;6.09;85.21
67457;BME280;54319;52.038;4.640;2023-02-11T00:08:43;103600.63;;;6.20;85.28
67457;BME280;54319;52.038;4.640;2023-02-11T00:11:12;103572.94;;;6.04;85.55
67457;BME280;54319;52.038;4.640;2023-02-11T00:13:41;103600.00;;;6.17;86.12
67457;BME280;54319;52.038;4.640;2023-02-11T00:16:09;103594.06;;;6.12;85.96
67457;BME280;54319;52.038;4.640;2023-02-11T00:18:36;103601.94;;;6.15;85.97
67457;BME280;54319;52.038;4.640;2023-02-11T00:21:09;103584.09;;;6.12;86.00
67457;BME280;54319;52.038;4.640;2023-02-11T00:23:37;103599.00;;;6.18;86.06
67457;BME280;54319;52.038;4.640;2023-02-11T00:26:10;103588.28;;;6.16;86.14
67457;BME280;54319;52.038;4.640;2023-02-11T00:28:36;103587.31;;;6.17;86.07
67457;BME280;54319;52.038;4.640;2023-02-11T00:31:04;103574.00;;;6.14;86.15
67457;BME280;54319;52.038;4.640;2023-02-11T00:33:30;103581.00;;;6.17;85.94
67457;BME280;54319;52.038;4.640;2023-02-11T00:35:57;103572.78;;;6.18;85.89
67457;BME280;54319;52.038;4.640;2023-02-11T00:38:25;103561.19;;;6.16;86.23
67457;BME280;54319;52.038;4.640;2023-02-11T00:40:52;103555.53;;;6.19;86.01
67457;BME280;54319;52.038;4.640;2023-02-11T00:43:19;103564.50;;;6.20;86.00
67457;BME280;54319;52.038;4.640;2023-02-11T00:45:46;103558.25;;;6.19;85.75
67457;BME280;54319;52.038;4.640;2023-02-11T00:48:12;103535.31;;;5.99;85.80
67457;BME280;54319;52.038;4.640;2023-02-11T00:50:40;103574.38;;;6.21;85.84
67457;BME280;54319;52.038;4.640;2023-02-11T00:53:06;103569.03;;;6.08;85.72
67457;BME280;54319;52.038;4.640;2023-02-11T00:55:35;103577.31;;;6.18;86.02
67457;BME280;54319;52.038;4.640;2023-02-11T00:58:02;103570.81;;;6.20;85.66
67457;BME280;54319;52.038;4.640;2023-02-11T01:00:31;103567.59;;;6.15;85.30
67457;BME280;54319;52.038;4.640;2023-02-11T01:02:58;103526.78;;;5.92;85.25
67457;BME280;54319;52.038;4.640;2023-02-11T01:05:25;103546.16;;;6.12;85.33
67457;BME280;54319;52.038;4.640;2023-02-11T01:07:52;103589.31;;;6.27;85.10
67457;BME280;54319;52.038;4.640;2023-02-11T01:10:19;103583.81;;;6.28;85.00
67457;BME280;54319;52.038;4.640;2023-02-11T01:12:47;103563.78;;;6.18;84.86
67457;BME280;54319;52.038;4.640;2023-02-11T01:15:17;103582.19;;;6.26;85.16
67457;BME280;54319;52.038;4.640;2023-02-11T01:17:44;103556.25;;;6.10;85.28
67457;BME280;54319;52.038;4.640;2023-02-11T01:20:15;103570.25;;;6.28;85.10
67457;BME280;54319;52.038;4.640;2023-02-11T01:22:42;103567.63;;;6.27;84.99
67457;BME280;54319;52.038;4.640;2023-02-11T01:25:09;103566.78;;;6.26;84.97
67457;BME280;54319;52.038;4.640;2023-02-11T01:27:36;103547.88;;;6.13;85.14
67457;BME280;54319;52.038;4.640;2023-02-11T01:30:07;103559.63;;;6.25;85.12
67457;BME280;54319;52.038;4.640;2023-02-11T01:32:35;103571.56;;;6.22;85.45
67457;BME280;54319;52.038;4.640;2023-02-11T01:35:03;103549.13;;;6.20;85.37
67457;BME280;54319;52.038;4.640;2023-02-11T01:37:31;103547.63;;;6.16;85.64
67457;BME280;54319;52.038;4.640;2023-02-11T01:40:00;103537.25;;;6.10;85.71
67457;BME280;54319;52.038;4.640;2023-02-11T01:42:26;103540.53;;;6.02;85.98
67457;BME280;54319;52.038;4.640;2023-02-11T01:44:56;103541.59;;;6.00;86.23
67457;BME280;54319;52.038;4.640;2023-02-11T01:47:24;103554.63;;;5.94;86.55
67457;BME280;54319;52.038;4.640;2023-02-11T01:49:54;103547.44;;;5.82;86.81
67457;BME280;54319;52.038;4.640;2023-02-11T01:52:25;103556.53;;;5.81;87.20
67457;BME280;54319;52.038;4.640;2023-02-11T01:54:57;103551.91;;;5.70;87.30
67457;BME280;54319;52.038;4.640;2023-02-11T01:57:46;103546.81;;;5.65;87.75
67457;BME280;54319;52.038;4.640;2023-02-11T02:00:17;103557.03;;;5.62;88.07
67457;BME280;54319;52.038;4.640;2023-02-11T02:02:49;103547.50;;;5.56;88.12
67457;BME280;54319;52.038;4.640;2023-02-11T02:05:22;103546.66;;;5.56;88.21
67457;BME280;54319;52.038;4.640;2023-02-11T02:07:57;103557.03;;;5.49;88.85
67457;BME280;54319;52.038;4.640;2023-02-11T02:10:27;103552.84;;;5.45;88.96
67457;BME280;54319;52.038;4.640;2023-02-11T02:12:56;103552.09;;;5.43;89.01
67457;BME280;54319;52.038;4.640;2023-02-11T02:15:27;103556.63;;;5.42;89.56
67457;BME280;54319;52.038;4.640;2023-02-11T02:18:07;103523.41;;;5.27;89.05
67457;BME280;54319;52.038;4.640;2023-02-11T02:21:12;103531.31;;;5.30;89.60
67457;BME280;54319;52.038;4.640;2023-02-11T02:24:20;103533.25;;;5.28;90.27
67457;BME280;54319;52.038;4.640;2023-02-11T02:27:09;103546.25;;;5.23;89.73
67457;BME280;54319;52.038;4.640;2023-02-11T02:32:57;103566.16;;;5.09;90.26
67457;BME280;54319;52.038;4.640;2023-02-11T02:35:32;103578.31;;;5.03;90.11
67457;BME280;54319;52.038;4.640;2023-02-11T02:38:07;103583.06;;;5.00;90.19
67457;BME280;54319;52.038;4.640;2023-02-11T02:40:42;103572.69;;;4.93;90.66
67457;BME280;54319;52.038;4.640;2023-02-11T02:43:11;103563.13;;;4.88;90.60
67457;BME280;54319;52.038;4.640;2023-02-11T02:45:40;103549.28;;;4.80;90.85
67457;BME280;54319;52.038;4.640;2023-02-11T02:48:23;103559.13;;;4.81;90.77
67457;BME280;54319;52.038;4.640;2023-02-11T02:50:56;103565.72;;;4.76;91.40
67457;BME280;54319;52.038;4.640;2023-02-11T02:53:40;103565.06;;;4.73;91.25
67457;BME280;54319;52.038;4.640;2023-02-11T02:56:13;103553.81;;;4.66;91.30
67457;BME280;54319;52.038;4.640;2023-02-11T02:59:08;103553.63;;;4.69;92.30
67457;BME280;54319;52.038;4.640;2023-02-11T03:01:45;103554.69;;;4.67;92.65
67457;BME280;54319;52.038;4.640;2023-02-11T03:04:23;103551.00;;;4.68;92.39
67457;BME280;54319;52.038;4.640;2023-02-11T03:07:01;103549.69;;;4.60;92.22
67457;BME280;54319;52.038;4.640;2023-02-11T03:09:31;103548.22;;;4.69;92.98
67457;BME280;54319;52.038;4.640;2023-02-11T03:12:01;103531.75;;;4.59;92.45
67457;BME280;54319;52.038;4.640;2023-02-11T03:14:29;103521.81;;;4.60;92.79
67457;BME280;54319;52.038;4.640;2023-02-11T03:17:00;103550.16;;;4.67;92.86
67457;BME280;54319;52.038;4.640;2023-02-11T03:19:34;103550.38;;;4.64;92.61
67457;BME280;54319;52.038;4.640;2023-02-11T03:22:05;103554.81;;;4.65;93.01
67457;BME280;54319;52.038;4.640;2023-02-11T03:24:36;103519.38;;;4.42;93.15
67457;BME280;54319;52.038;4.640;2023-02-11T03:27:08;103548.84;;;4.60;93.14
67457;BME280;54319;52.038;4.640;2023-02-11T03:29:40;103548.84;;;4.60;93.34
67457;BME280;54319;52.038;4.640;2023-02-11T03:32:12;103539.56;;;4.64;93.38
67457;BME280;54319;52.038;4.640;2023-02-11T03:34:45;103541.06;;;4.68;93.93
67457;BME280;54319;52.038;4.640;2023-02-11T03:37:16;103529.16;;;4.71;93.93
67457;BME280;54319;52.038;4.640;2023-02-11T03:39:47;103513.34;;;4.64;94.00
67457;BME280;54319;52.038;4.640;2023-02-11T03:42:17;103544.09;;;4.76;93.60
67457;BME280;54319;52.038;4.640;2023-02-11T03:44:49;103457.41;;;4.26;93.75
67457;BME280;54319;52.038;4.640;2023-02-11T03:47:20;103494.03;;;4.58;94.17
67457;BME280;54319;52.038;4.640;2023-02-11T03:49:54;103523.44;;;4.75;94.06
67457;BME280;54319;52.038;4.640;2023-02-11T03:52:23;103533.06;;;4.80;94.00
67457;BME280;54319;52.038;4.640;2023-02-11T03:54:55;103510.78;;;4.76;94.29
67457;BME280;54319;52.038;4.640;2023-02-11T03:57:23;103523.31;;;4.90;94.49
67457;BME280;54319;52.038;4.640;2023-02-11T03:59:52;103522.69;;;4.86;94.51
67457;BME280;54319;52.038;4.640;2023-02-11T04:02:20;103523.13;;;4.93;94.61
67457;BME280;54319;52.038;4.640;2023-02-11T04:04:47;103530.06;;;4.97;94.90
67457;BME280;54319;52.038;4.640;2023-02-11T04:07:16;103519.22;;;4.97;94.44
67457;BME280;54319;52.038;4.640;2023-02-11T04:09:43;103525.28;;;5.01;94.60
67457;BME280;54319;52.038;4.640;2023-02-11T04:12:10;103521.72;;;5.00;94.55
67457;BME280;54319;52.038;4.640;2023-02-11T04:14:37;103522.91;;;4.96;94.49
67457;BME280;54319;52.038;4.640;2023-02-11T04:17:04;103529.38;;;5.06;94.68
67457;BME280;54319;52.038;4.640;2023-02-11T04:19:31;103533.06;;;5.05;94.52
67457;BME280;54319;52.038;4.640;2023-02-11T04:21:58;103534.81;;;5.06;94.61
67457;BME280;54319;52.038;4.640;2023-02-11T04:24:26;103527.66;;;5.18;95.14
67457;BME280;54319;52.038;4.640;2023-02-11T04:26:53;103528.94;;;5.13;94.29
67457;BME280;54319;52.038;4.640;2023-02-11T04:29:21;103526.47;;;5.10;94.81
67457;BME280;54319;52.038;4.640;2023-02-11T04:31:48;103526.56;;;5.08;94.46
67457;BME280;54319;52.038;4.640;2023-02-11T04:34:15;103532.31;;;5.03;94.43
67457;BME280;54319;52.038;4.640;2023-02-11T04:36:42;103530.69;;;5.01;94.50
67457;BME280;54319;52.038;4.640;2023-02-11T04:39:09;103535.25;;;5.00;94.91
67457;BME280;54319;52.038;4.640;2023-02-11T04:41:38;103510.22;;;4.97;94.93
67457;BME280;54319;52.038;4.640;2023-02-11T04:44:05;103519.00;;;5.00;94.98
67457;BME280;54319;52.038;4.640;2023-02-11T04:46:32;103527.88;;;5.02;94.87
67457;BME280;54319;52.038;4.640;2023-02-11T04:48:59;103527.31;;;5.10;94.76
67457;BME280;54319;52.038;4.640;2023-02-11T04:51:27;103529.03;;;5.11;95.07
67457;BME280;54319;52.038;4.640;2023-02-11T04:53:53;103513.38;;;5.03;95.10
67457;BME280;54319;52.038;4.640;2023-02-11T04:56:20;103524.94;;;5.05;94.77
67457;BME280;54319;52.038;4.640;2023-02-11T04:58:48;103518.66;;;5.05;95.05
67457;BME280;54319;52.038;4.640;2023-02-11T05:01:15;103514.34;;;5.02;94.93
67457;BME280;54319;52.038;4.640;2023-02-11T05:03:42;103470.97;;;4.78;94.93
67457;BME280;54319;52.038;4.640;2023-02-11T05:06:09;103514.56;;;4.99;94.93
67457;BME280;54319;52.038;4.640;2023-02-11T05:08:36;103521.06;;;4.97;95.22
67457;BME280;54319;52.038;4.640;2023-02-11T05:11:04;103499.31;;;4.85;95.36
67457;BME280;54319;52.038;4.640;2023-02-11T05:13:31;103529.84;;;5.00;95.60
67457;BME280;54319;52.038;4.640;2023-02-11T05:15:59;103513.91;;;4.96;95.48
67457;BME280;54319;52.038;4.640;2023-02-11T05:18:26;103497.59;;;4.84;95.75
67457;BME280;54319;52.038;4.640;2023-02-11T05:20:53;103532.31;;;5.03;96.07
67457;BME280;54319;52.038;4.640;2023-02-11T05:23:21;103497.38;;;4.74;96.01
67457;BME280;54319;52.038;4.640;2023-02-11T05:25:48;103532.00;;;4.95;95.93
67457;BME280;54319;52.038;4.640;2023-02-11T05:28:15;103525.25;;;4.88;96.08
67457;BME280;54319;52.038;4.640;2023-02-11T05:30:42;103515.63;;;4.84;96.14
67457;BME280;54319;52.038;4.640;2023-02-11T05:33:10;103542.06;;;4.93;96.04
67457;BME280;54319;52.038;4.640;2023-02-11T05:35:37;103559.38;;;5.03;96.25
67457;BME280;54319;52.038;4.640;2023-02-11T05:38:03;103558.19;;;5.07;96.07
67457;BME280;54319;52.038;4.640;2023-02-11T05:40:30;103553.41;;;5.11;96.30
67457;BME280;54319;52.038;4.640;2023-02-11T05:42:57;103552.78;;;5.07;96.05
67457;BME280;54319;52.038;4.640;2023-02-11T05:45:24;103546.91;;;5.01;95.96
67457;BME280;54319;52.038;4.640;2023-02-11T05:47:51;103547.03;;;4.99;96.06
67457;BME280;54319;52.038;4.640;2023-02-11T05:50:19;103542.47;;;5.00;96.27
67457;BME280;54319;52.038;4.640;2023-02-11T05:52:46;103515.84;;;4.81;96.20
67457;BME280;54319;52.038;4.640;2023-02-11T05:55:13;103549.97;;;4.96;96.13
67457;BME280;54319;52.038;4.640;2023-02-11T05:57:40;103558.94;;;4.97;96.19
67457;BME280;54319;52.038;4.640;2023-02-11T06:00:09;103559.38;;;4.90;96.04
67457;BME280;54319;52.038;4.640;2023-02-11T06:02:35;103504.25;;;4.53;95.89
67457;BME280;54319;52.038;4.640;2023-02-11T06:05:03;103545.53;;;4.82;95.97
67457;BME280;54319;52.038;4.640;2023-02-11T06:07:30;103549.41;;;4.78;95.96
67457;BME280;54319;52.038;4.640;2023-02-11T06:09:58;103549.28;;;4.80;96.30
67457;BME280;54319;52.038;4.640;2023-02-11T06:12:25;103546.91;;;4.88;96.73
67457;BME280;54319;52.038;4.640;2023-02-11T06:14:54;103537.28;;;4.84;96.56
67457;BME280;54319;52.038;4.640;2023-02-11T06:17:20;103528.09;;;4.73;96.66
67457;BME280;54319;52.038;4.640;2023-02-11T06:19:48;103497.13;;;4.52;96.36
67457;BME280;54319;52.038;4.640;2023-02-11T06:22:14;103550.59;;;4.87;96.39
67457;BME280;54319;52.038;4.640;2023-02-11T06:24:43;103557.09;;;4.84;96.64
67457;BME280;54319;52.038;4.640;2023-02-11T06:27:09;103546.91;;;4.88;96.46
67457;BME280;54319;52.038;4.640;2023-02-11T06:29:36;103551.47;;;4.87;96.61
67457;BME280;54319;52.038;4.640;2023-02-11T06:32:03;103553.19;;;4.88;96.93
67457;BME280;54319;52.038;4.640;2023-02-11T06:34:31;103550.81;;;4.97;96.98
67457;BME280;54319;52.038;4.640;2023-02-11T06:36:58;103552.44;;;4.99;96.96
67457;BME280;54319;52.038;4.640;2023-02-11T06:39:25;103549.41;;;5.04;97.02
67457;BME280;54319;52.038;4.640;2023-02-11T06:41:53;103524.28;;;4.89;96.98
67457;BME280;54319;52.038;4.640;2023-02-11T06:44:20;103557.97;;;5.11;97.03
67457;BME280;54319;52.038;4.640;2023-02-11T06:46:47;103560.34;;;5.15;97.07
67457;BME280;54319;52.038;4.640;2023-02-11T06:49:15;103563.81;;;5.17;97.18
67457;BME280;54319;52.038;4.640;2023-02-11T06:51:42;103565.41;;;5.20;96.83
67457;BME280;54319;52.038;4.640;2023-02-11T06:54:09;103550.38;;;5.16;96.91
67457;BME280;54319;52.038;4.640;2023-02-11T06:56:38;103556.66;;;5.16;96.83
67457;BME280;54319;52.038;4.640;2023-02-11T06:59:07;103559.25;;;5.18;96.83
67457;BME280;54319;52.038;4.640;2023-02-11T07:01:33;103550.81;;;5.10;96.75
67457;BME280;54319;52.038;4.640;2023-02-11T07:04:01;103557.28;;;5.07;96.83
67457;BME280;54319;52.038;4.640;2023-02-11T07:06:27;103551.25;;;5.03;96.90
67457;BME280;54319;52.038;4.640;2023-02-11T07:08:55;103543.00;;;4.92;96.76
67457;BME280;54319;52.038;4.640;2023-02-11T07:11:24;103574.72;;;5.16;97.10
67457;BME280;54319;52.038;4.640;2023-02-11T07:13:52;103573.75;;;5.17;96.82
67457;BME280;54319;52.038;4.640;2023-02-11T07:16:22;103592.59;;;5.18;96.71
67457;BME280;54319;52.038;4.640;2023-02-11T07:18:48;103573.44;;;5.21;97.10
67457;BME280;54319;52.038;4.640;2023-02-11T07:21:18;103577.75;;;5.24;96.94
67457;BME280;54319;52.038;4.640;2023-02-11T07:23:45;103576.78;;;5.25;96.96
67457;BME280;54319;52.038;4.640;2023-02-11T07:26:14;103585.56;;;5.29;96.91
67457;BME280;54319;52.038;4.640;2023-02-11T07:28:41;103561.31;;;5.14;97.10
67457;BME280;54319;52.038;4.640;2023-02-11T07:31:12;103592.38;;;5.34;97.06
67457;BME280;54319;52.038;4.640;2023-02-11T07:33:40;103578.94;;;5.33;96.94
67457;BME280;54319;52.038;4.640;2023-02-11T07:36:09;103594.97;;;5.36;97.22
67457;BME280;54319;52.038;4.640;2023-02-11T07:38:37;103589.53;;;5.36;96.94
67457;BME280;54319;52.038;4.640;2023-02-11T07:41:04;103591.72;;;5.44;97.05
67457;BME280;54319;52.038;4.640;2023-02-11T07:43:31;103595.59;;;5.53;97.29
67457;BME280;54319;52.038;4.640;2023-02-11T07:46:02;103586.28;;;5.57;97.32
67457;BME280;54319;52.038;4.640;2023-02-11T07:48:29;103586.38;;;5.55;96.90
67457;BME280;54319;52.038;4.640;2023-02-11T07:51:06;103596.75;;;5.61;97.06
67457;BME280;54319;52.038;4.640;2023-02-11T07:53:32;103595.38;;;5.69;96.87
67457;BME280;54319;52.038;4.640;2023-02-11T07:56:01;103594.03;;;5.74;96.93
67457;BME280;54319;52.038;4.640;2023-02-11T07:58:27;103589.50;;;5.75;96.96
67457;BME280;54319;52.038;4.640;2023-02-11T08:00:59;103598.16;;;5.80;96.73
67457;BME280;54319;52.038;4.640;2023-02-11T08:03:26;103595.22;;;5.83;96.72
67457;BME280;54319;52.038;4.640;2023-02-11T08:05:53;103602.88;;;5.89;96.56
67457;BME280;54319;52.038;4.640;2023-02-11T08:08:21;103600.69;;;5.94;96.48
67457;BME280;54319;52.038;4.640;2023-02-11T08:10:49;103598.13;;;5.93;96.46
67457;BME280;54319;52.038;4.640;2023-02-11T08:13:16;103604.47;;;6.05;96.48
67457;BME280;54319;52.038;4.640;2023-02-11T08:15:42;103603.28;;;6.09;96.19
67457;BME280;54319;52.038;4.640;2023-02-11T08:18:09;103613.03;;;6.12;96.15
67457;BME280;54319;52.038;4.640;2023-02-11T08:20:36;103611.72;;;6.17;96.13
67457;BME280;54319;52.038;4.640;2023-02-11T08:23:04;103623.06;;;6.22;95.98
67457;BME280;54319;52.038;4.640;2023-02-11T08:25:33;103616.66;;;6.23;95.79
67457;BME280;54319;52.038;4.640;2023-02-11T08:27:59;103611.72;;;6.17;95.63
67457;BME280;54319;52.038;4.640;2023-02-11T08:30:27;103619.91;;;6.29;95.73
67457;BME280;54319;52.038;4.640;2023-02-11T08:32:53;103625.84;;;6.34;95.52
67457;BME280;54319;52.038;4.640;2023-02-11T08:35:20;103630.03;;;6.38;95.56
67457;BME280;54319;52.038;4.640;2023-02-11T08:37:47;103641.53;;;6.42;95.26
67457;BME280;54319;52.038;4.640;2023-02-11T08:40:14;103635.66;;;6.48;95.12
67457;BME280;54319;52.038;4.640;2023-02-11T08:42:43;103641.06;;;6.48;95.43
67457;BME280;54319;52.038;4.640;2023-02-11T08:45:11;103643.22;;;6.56;95.02
67457;BME280;54319;52.038;4.640;2023-02-11T08:47:37;103644.94;;;6.57;94.95
67457;BME280;54319;52.038;4.640;2023-02-11T08:50:05;103647.06;;;6.64;94.65
67457;BME280;54319;52.038;4.640;2023-02-11T08:52:32;103641.75;;;6.63;94.15
67457;BME280;54319;52.038;4.640;2023-02-11T08:54:59;103638.47;;;6.71;94.61
67457;BME280;54319;52.038;4.640;2023-02-11T08:57:26;103644.16;;;6.79;94.44
67457;BME280;54319;52.038;4.640;2023-02-11T08:59:54;103593.75;;;6.52;94.09
67457;BME280;54319;52.038;4.640;2023-02-11T09:02:21;103644.56;;;6.86;94.09
67457;BME280;54319;52.038;4.640;2023-02-11T09:04:48;103649.50;;;6.92;94.10
67457;BME280;54319;52.038;4.640;2023-02-11T09:07:14;103645.44;;;6.98;93.82
67457;BME280;54319;52.038;4.640;2023-02-11T09:09:42;103603.81;;;6.74;93.59
67457;BME280;54319;52.038;4.640;2023-02-11T09:12:08;103653.00;;;7.05;93.21
67457;BME280;54319;52.038;4.640;2023-02-11T09:14:35;103650.16;;;7.07;93.20
67457;BME280;54319;52.038;4.640;2023-02-11T09:17:04;103657.84;;;7.13;92.99
67457;BME280;54319;52.038;4.640;2023-02-11T09:19:32;103645.25;;;7.12;93.09
67457;BME280;54319;52.038;4.640;2023-02-11T09:22:00;103658.22;;;7.20;92.73
67457;BME280;54319;52.038;4.640;2023-02-11T09:24:27;103654.28;;;7.24;92.70
67457;BME280;54319;52.038;4.640;2023-02-11T09:26:54;103659.56;;;7.26;92.57
67457;BME280;54319;52.038;4.640;2023-02-11T09:29:21;103654.88;;;7.28;92.46
67457;BME280;54319;52.038;4.640;2023-02-11T09:31:47;103660.72;;;7.34;92.40
67457;BME280;54319;52.038;4.640;2023-02-11T09:34:16;103658.72;;;7.36;92.24
67457;BME280;54319;52.038;4.640;2023-02-11T09:36:42;103669.84;;;7.45;91.89
67457;BME280;54319;52.038;4.640;2023-02-11T09:39:12;103657.50;;;7.41;91.65
67457;BME280;54319;52.038;4.640;2023-02-11T09:42:01;103670.72;;;7.45;91.54
67457;BME280;54319;52.038;4.640;2023-02-11T09:44:35;103667.53;;;7.51;91.79
67457;BME280;54319;52.038;4.640;2023-02-11T09:47:05;103670.97;;;7.53;91.35
67457;BME280;54319;52.038;4.640;2023-02-11T09:49:40;103657.75;;;7.49;91.52
67457;BME280;54319;52.038;4.640;2023-02-11T09:52:15;103642.19;;;7.39;91.26
67457;BME280;54319;52.038;4.640;2023-02-11T09:54:52;103656.41;;;7.55;91.28
67457;BME280;54319;52.038;4.640;2023-02-11T09:57:20;103607.13;;;7.36;90.53
67457;BME280;54319;52.038;4.640;2023-02-11T09:59:48;103668.78;;;7.81;90.20
67457;BME280;54319;52.038;4.640;2023-02-11T10:02:20;103676.03;;;7.92;89.46
67457;BME280;54319;52.038;4.640;2023-02-11T10:05:12;103678.75;;;8.04;88.69
67457;BME280;54319;52.038;4.640;2023-02-11T10:07:47;103683.81;;;8.20;88.29
67457;BME280;54319;52.038;4.640;2023-02-11T10:10:28;103674.25;;;8.25;87.34
67457;BME280;54319;52.038;4.640;2023-02-11T10:13:17;103685.59;;;8.53;86.12
67457;BME280;54319;52.038;4.640;2023-02-11T10:15:50;103688.78;;;8.59;85.02
67457;BME280;54319;52.038;4.640;2023-02-11T10:18:36;103696.09;;;8.58;83.96
67457;BME280;54319;52.038;4.640;2023-02-11T10:21:16;103668.75;;;8.48;83.72
67457;BME280;54319;52.038;4.640;2023-02-11T10:23:48;103701.34;;;8.71;83.64
67457;BME280;54319;52.038;4.640;2023-02-11T10:26:17;103686.16;;;8.68;83.07
67457;BME280;54319;52.038;4.640;2023-02-11T10:28:47;103710.81;;;8.88;82.07
67457;BME280;54319;52.038;4.640;2023-02-11T10:31:20;103709.69;;;8.91;82.33
67457;BME280;54319;52.038;4.640;2023-02-11T10:33:52;103711.78;;;8.98;82.15
67457;BME280;54319;52.038;4.640;2023-02-11T10:36:26;103707.91;;;9.01;81.56
67457;BME280;54319;52.038;4.640;2023-02-11T10:38:54;103713.81;;;9.06;81.30
67457;BME280;54319;52.038;4.640;2023-02-11T10:41:25;103713.44;;;9.11;80.72
67457;BME280;54319;52.038;4.640;2023-02-11T10:43:57;103713.06;;;9.16;81.20
67457;BME280;54319;52.038;4.640;2023-02-11T10:46:30;103715.25;;;9.22;80.75
67457;BME280;54319;52.038;4.640;2023-02-11T10:48:58;103726.34;;;9.30;80.36
67457;BME280;54319;52.038;4.640;2023-02-11T10:51:27;103728.34;;;9.28;80.32
67457;BME280;54319;52.038;4.640;2023-02-11T10:54:17;103724.63;;;9.29;80.06
67457;BME280;54319;52.038;4.640;2023-02-11T10:56:47;103739.84;;;9.32;80.27
67457;BME280;54319;52.038;4.640;2023-02-11T10:59:23;103734.13;;;9.35;79.16
67457;BME280;54319;52.038;4.640;2023-02-11T11:01:53;103712.38;;;9.23;79.33
67457;BME280;54319;52.038;4.640;2023-02-11T11:04:44;103743.16;;;9.35;80.02
67457;BME280;54319;52.038;4.640;2023-02-11T11:07:15;103711.34;;;9.15;80.01
67457;BME280;54319;52.038;4.640;2023-02-11T11:09:48;103746.88;;;9.34;80.00
67457;BME280;54319;52.038;4.640;2023-02-11T11:12:46;103735.06;;;9.24;79.88
67457;BME280;54319;52.038;4.640;2023-02-11T11:15:23;103751.84;;;9.29;79.73
67457;BME280;54319;52.038;4.640;2023-02-11T11:17:52;103754.38;;;9.21;80.09
67457;BME280;54319;52.038;4.640;2023-02-11T11:20:35;103748.06;;;9.20;79.90
67457;BME280;54319;52.038;4.640;2023-02-11T11:23:15;103750.13;;;9.28;79.66
67457;BME280;54319;52.038;4.640;2023-02-11T11:25:45;103753.97;;;9.25;80.19
67457;BME280;54319;52.038;4.640;2023-02-11T11:28:25;103755.13;;;9.23;80.23
67457;BME280;54319;52.038;4.640;2023-02-11T11:30:55;103736.78;;;9.25;80.21
67457;BME280;54319;52.038;4.640;2023-02-11T11:33:25;103734.84;;;9.16;80.17
67457;BME280;54319;52.038;4.640;2023-02-11T11:36:03;103734.50;;;9.09;80.13
67457;BME280;54319;52.038;4.640;2023-02-11T11:38:36;103705.25;;;8.90;80.56
67457;BME280;54319;52.038;4.640;2023-02-11T11:41:28;103748.72;;;9.12;80.24
67457;BME280;54319;52.038;4.640;2023-02-11T11:43:56;103752.78;;;9.18;80.47
67457;BME280;54319;52.038;4.640;2023-02-11T11:46:29;103737.34;;;9.07;80.40
67457;BME280;54319;52.038;4.640;2023-02-11T11:49:12;103745.00;;;9.14;80.30
67457;BME280;54319;52.038;4.640;2023-02-11T11:51:48;103736.03;;;9.23;79.88
67457;BME280;54319;52.038;4.640;2023-02-11T11:54:19;103741.63;;;9.43;79.52
67457;BME280;54319;52.038;4.640;2023-02-11T11:56:52;103730.31;;;9.26;80.17
67457;BME280;54319;52.038;4.640;2023-02-11T11:59:21;103754.25;;;9.44;79.66
67457;BME280;54319;52.038;4.640;2023-02-11T12:02:02;103756.38;;;9.40;79.74
67457;BME280;54319;52.038;4.640;2023-02-11T12:04:45;103756.50;;;9.38;79.93
67457;BME280;54319;52.038;4.640;2023-02-11T12:07:25;103741.31;;;9.36;79.36
67457;BME280;54319;52.038;4.640;2023-02-11T12:10:15;103755.13;;;9.44;79.37
67457;BME280;54319;52.038;4.640;2023-02-11T12:12:50;103756.97;;;9.44;78.84
67457;BME280;54319;52.038;4.640;2023-02-11T12:15:28;103751.47;;;9.34;79.90
67457;BME280;54319;52.038;4.640;2023-02-11T12:18:14;103754.59;;;9.29;79.86
67457;BME280;54319;52.038;4.640;2023-02-11T12:20:57;103751.13;;;9.27;79.67
67457;BME280;54319;52.038;4.640;2023-02-11T12:23:38;103752.84;;;9.28;79.61
67457;BME280;54319;52.038;4.640;2023-02-11T12:26:13;103748.31;;;9.38;79.31
67457;BME280;54319;52.038;4.640;2023-02-11T12:28:54;103745.13;;;9.54;78.50
67457;BME280;54319;52.038;4.640;2023-02-11T12:31:38;103749.19;;;9.60;79.04
67457;BME280;54319;52.038;4.640;2023-02-11T12:34:28;103754.56;;;9.72;78.27
67457;BME280;54319;52.038;4.640;2023-02-11T12:37:03;103751.44;;;9.76;78.22
67457;BME280;54319;52.038;4.640;2023-02-11T12:39:39;103707.88;;;9.55;77.19
67457;BME280;54319;52.038;4.640;2023-02-11T12:42:19;103737.88;;;9.86;76.54
67457;BME280;54319;52.038;4.640;2023-02-11T12:45:17;103751.72;;;10.04;76.30
67457;BME280;54319;52.038;4.640;2023-02-11T12:47:58;103747.13;;;10.05;75.58
67457;BME280;54319;52.038;4.640;2023-02-11T12:50:34;103757.19;;;10.14;75.77
67457;BME280;54319;52.038;4.640;2023-02-11T12:53:29;103759.00;;;10.35;74.98
67457;BME280;54319;52.038;4.640;2023-02-11T12:56:05;103752.69;;;10.34;75.12
67457;BME280;54319;52.038;4.640;2023-02-11T12:58:36;103753.28;;;10.38;75.52
67457;BME280;54319;52.038;4.640;2023-02-11T13:01:09;103744.03;;;10.29;74.98
67457;BME280;54319;52.038;4.640;2023-02-11T13:03:43;103749.38;;;10.31;75.33
67457;BME280;54319;52.038;4.640;2023-02-11T13:06:14;103747.00;;;10.16;75.51
67457;BME280;54319;52.038;4.640;2023-02-11T13:08:46;103747.63;;;10.20;75.67
67457;BME280;54319;52.038;4.640;2023-02-11T13:11:17;103734.69;;;10.22;75.20
67457;BME280;54319;52.038;4.640;2023-02-11T13:13:52;103700.63;;;10.16;75.03
67457;BME280;54319;52.038;4.640;2023-02-11T13:16:32;103746.44;;;10.53;74.09
67457;BME280;54319;52.038;4.640;2023-02-11T13:19:02;103739.09;;;10.44;73.91
67457;BME280;54319;52.038;4.640;2023-02-11T13:21:49;103717.06;;;10.36;73.40
67457;BME280;54319;52.038;4.640;2023-02-11T13:24:25;103719.94;;;10.24;73.95